createdAt,value
2022-11-29T00:01:16.167Z,81.97
2022-11-29T00:03:42.979Z,81.77
2022-11-29T00:06:12.628Z,81.66
2022-11-29T00:08:39.180Z,81.97
2022-11-29T00:11:08.656Z,81.46
2022-11-29T00:13:35.744Z,82.09
2022-11-29T00:16:07.714Z,81.80
2022-11-29T00:18:34.650Z,81.71
2022-11-29T00:21:05.574Z,81.72
2022-11-29T00:23:32.052Z,81.77
2022-11-29T00:26:05.840Z,81.75
2022-11-29T00:28:32.807Z,82.09
2022-11-29T00:30:59.416Z,82.02
2022-11-29T00:33:26.630Z,81.95
2022-11-29T00:35:53.065Z,81.93
2022-11-29T00:38:19.520Z,81.97
2022-11-29T00:40:51.727Z,82.11
2022-11-29T00:43:18.334Z,82.17
2022-11-29T00:45:44.863Z,82.01
2022-11-29T00:48:11.329Z,81.94
2022-11-29T00:50:37.763Z,82.11
2022-11-29T00:53:04.222Z,81.95
2022-11-29T00:55:30.661Z,82.05
2022-11-29T00:57:57.131Z,82.43
2022-11-29T01:00:23.582Z,82.64
2022-11-29T01:02:50.034Z,82.51
2022-11-29T01:05:16.476Z,82.92
2022-11-29T01:07:42.972Z,82.39
2022-11-29T01:10:09.897Z,82.60
2022-11-29T01:12:37.754Z,83.08
2022-11-29T01:15:06.374Z,83.07
2022-11-29T01:17:35.920Z,83.48
2022-11-29T01:20:03.712Z,83.29
2022-11-29T01:22:30.188Z,83.65
2022-11-29T01:24:56.627Z,83.26
2022-11-29T01:27:23.219Z,83.37
2022-11-29T01:29:49.662Z,83.38
2022-11-29T01:32:16.272Z,83.31
2022-11-29T01:34:43.200Z,83.44
2022-11-29T01:37:09.825Z,83.63
2022-11-29T01:39:36.304Z,83.40
2022-11-29T01:42:03.112Z,84.36
2022-11-29T01:44:29.489Z,84.01
2022-11-29T01:46:56.914Z,84.10
2022-11-29T01:49:36.811Z,83.84
2022-11-29T01:52:08.062Z,84.04
2022-11-29T01:54:39.495Z,84.18
2022-11-29T01:57:08.490Z,84.00
2022-11-29T01:59:37.286Z,84.20
2022-11-29T02:02:12.591Z,84.29
2022-11-29T02:04:42.173Z,83.82
2022-11-29T02:07:09.407Z,83.73
2022-11-29T02:09:35.848Z,83.74
2022-11-29T02:12:26.822Z,84.00
2022-11-29T02:15:02.154Z,84.72
2022-11-29T02:17:46.149Z,84.41
2022-11-29T02:20:54.856Z,84.33
2022-11-29T02:23:39.859Z,84.72
2022-11-29T02:26:40.479Z,84.80
2022-11-29T02:29:41.048Z,84.28
2022-11-29T02:32:49.772Z,84.54
2022-11-29T02:35:43.832Z,84.46
2022-11-29T02:38:22.435Z,84.60
2022-11-29T02:40:54.388Z,84.57
2022-11-29T02:43:45.855Z,84.25
2022-11-29T02:46:34.259Z,84.48
2022-11-29T02:49:12.016Z,84.88
2022-11-29T02:51:49.521Z,84.94
2022-11-29T02:54:34.032Z,84.74
2022-11-29T02:57:11.624Z,84.92
2022-11-29T02:59:47.084Z,85.46
2022-11-29T03:02:37.357Z,85.81
2022-11-29T03:05:15.315Z,86.29
2022-11-29T03:07:50.446Z,86.05
2022-11-29T03:10:28.628Z,86.34
2022-11-29T03:12:55.633Z,86.74
2022-11-29T03:15:48.129Z,86.31
2022-11-29T03:18:33.215Z,86.47
2022-11-29T03:21:24.608Z,86.98
2022-11-29T03:23:55.085Z,87.15
2022-11-29T03:26:29.775Z,86.59
2022-11-29T03:29:08.081Z,86.25
2022-11-29T03:31:39.106Z,86.57
2022-11-29T03:34:26.304Z,85.88
2022-11-29T03:37:06.136Z,86.02
2022-11-29T03:39:44.699Z,86.05
2022-11-29T03:42:16.416Z,86.05
2022-11-29T03:44:50.592Z,86.55
2022-11-29T03:47:26.131Z,86.31
2022-11-29T03:49:58.982Z,85.85
2022-11-29T03:52:31.603Z,86.41
2022-11-29T03:55:24.738Z,86.43
2022-11-29T03:58:08.243Z,86.34
2022-11-29T04:00:49.564Z,86.45
2022-11-29T04:03:32.155Z,86.77
2022-11-29T04:05:58.533Z,86.71
2022-11-29T04:08:49.810Z,86.86
2022-11-29T04:11:55.162Z,87.05
2022-11-29T04:14:28.752Z,86.32
2022-11-29T04:17:17.331Z,86.71
2022-11-29T04:20:05.308Z,86.72
2022-11-29T04:22:59.261Z,86.86
2022-11-29T04:25:36.877Z,86.95
2022-11-29T04:28:37.812Z,86.89
2022-11-29T04:31:22.790Z,86.60
2022-11-29T04:34:04.348Z,87.13
2022-11-29T04:37:09.261Z,86.59
2022-11-29T04:40:09.922Z,86.50
2022-11-29T04:43:08.797Z,86.51
2022-11-29T04:45:55.699Z,86.60
2022-11-29T04:48:56.048Z,86.77
2022-11-29T04:51:53.704Z,86.92
2022-11-29T04:54:27.594Z,86.75
2022-11-29T04:57:06.028Z,86.69
2022-11-29T04:59:48.199Z,86.53
2022-11-29T05:02:52.219Z,86.60
2022-11-29T05:05:27.591Z,86.35
2022-11-29T05:08:32.140Z,86.66
2022-11-29T05:11:10.576Z,86.92
2022-11-29T05:13:50.980Z,86.92
2022-11-29T05:16:29.072Z,86.98
2022-11-29T05:19:13.290Z,87.21
2022-11-29T05:21:42.894Z,86.62
2022-11-29T05:24:12.090Z,86.75
2022-11-29T05:26:50.182Z,86.24
2022-11-29T05:29:26.039Z,86.80
2022-11-29T05:32:04.762Z,86.48
2022-11-29T05:34:40.208Z,86.15
2022-11-29T05:37:31.248Z,86.05
2022-11-29T05:40:36.588Z,85.83
2022-11-29T05:43:24.451Z,86.13
2022-11-29T05:46:12.750Z,86.44
2022-11-29T05:48:48.892Z,86.18
2022-11-29T05:51:40.052Z,86.42
2022-11-29T05:54:33.698Z,86.90
2022-11-29T05:57:11.406Z,87.10
2022-11-29T05:59:38.992Z,87.27
2022-11-29T06:02:20.337Z,86.84
2022-11-29T06:04:58.634Z,86.52
2022-11-29T06:07:37.381Z,86.23
2022-11-29T06:10:06.976Z,86.39
2022-11-29T06:12:35.933Z,86.31
2022-11-29T06:15:46.526Z,86.36
2022-11-29T06:18:44.753Z,86.09
2022-11-29T06:21:29.806Z,86.37
2022-11-29T06:24:23.286Z,86.83
2022-11-29T06:27:05.726Z,86.40
2022-11-29T06:29:50.484Z,86.80
2022-11-29T06:32:30.491Z,87.04
2022-11-29T06:35:00.628Z,87.04
2022-11-29T06:37:38.941Z,86.43
2022-11-29T06:40:09.639Z,86.26
2022-11-29T06:42:36.204Z,86.46
2022-11-29T06:45:03.499Z,86.97
2022-11-29T06:47:57.841Z,86.74
2022-11-29T06:50:30.317Z,86.74
2022-11-29T06:53:23.597Z,86.82
2022-11-29T06:56:17.992Z,87.11
2022-11-29T06:58:57.967Z,87.30
2022-11-29T07:01:42.326Z,86.93
2022-11-29T07:04:35.225Z,87.21
2022-11-29T07:07:02.041Z,86.76
2022-11-29T07:09:34.670Z,86.81
2022-11-29T07:12:01.467Z,87.35
2022-11-29T07:14:28.228Z,86.99
2022-11-29T07:17:03.465Z,87.28
2022-11-29T07:19:42.516Z,87.23
2022-11-29T07:22:17.708Z,86.54
2022-11-29T07:25:03.244Z,86.53
2022-11-29T07:27:38.118Z,86.23
2022-11-29T07:30:16.783Z,86.56
2022-11-29T07:33:14.715Z,86.25
2022-11-29T07:35:53.271Z,86.59
2022-11-29T07:38:29.591Z,86.39
2022-11-29T07:41:16.546Z,86.64
2022-11-29T07:43:53.938Z,86.30
2022-11-29T07:46:20.440Z,86.81
2022-11-29T07:48:46.912Z,87.00
2022-11-29T07:51:14.205Z,86.54
2022-11-29T07:53:43.713Z,86.48
2022-11-29T07:56:10.726Z,86.75
2022-11-29T07:58:37.234Z,86.36
2022-11-29T08:01:03.967Z,86.55
2022-11-29T08:03:35.342Z,85.97
2022-11-29T08:06:02.800Z,86.18
2022-11-29T08:08:29.361Z,86.20
2022-11-29T08:10:55.933Z,86.39
2022-11-29T08:13:22.421Z,86.60
2022-11-29T08:16:19.325Z,86.73
2022-11-29T08:18:45.818Z,86.15
2022-11-29T08:21:17.827Z,86.51
2022-11-29T08:23:48.519Z,86.33
2022-11-29T08:26:16.324Z,85.97
2022-11-29T08:28:42.852Z,85.86
2022-11-29T08:31:11.304Z,85.60
2022-11-29T08:33:40.732Z,85.61
2022-11-29T08:36:13.053Z,86.11
2022-11-29T08:38:40.231Z,86.00
2022-11-29T08:41:09.166Z,85.97
2022-11-29T08:43:36.096Z,86.17
2022-11-29T08:46:02.980Z,86.52
2022-11-29T08:48:29.523Z,86.28
2022-11-29T08:50:56.737Z,86.17
2022-11-29T08:53:42.241Z,86.20
2022-11-29T08:56:53.325Z,86.32
2022-11-29T08:59:00.805Z,86.12
2022-11-29T09:01:27.383Z,85.75
2022-11-29T09:03:59.593Z,86.14
2022-11-29T09:06:28.131Z,85.73
2022-11-29T09:08:56.448Z,85.86
2022-11-29T09:11:24.531Z,86.07
2022-11-29T09:13:53.768Z,85.69
2022-11-29T09:16:23.921Z,86.06
2022-11-29T09:18:52.089Z,86.29
2022-11-29T09:21:19.512Z,86.18
2022-11-29T09:23:46.396Z,85.88
2022-11-29T09:26:17.385Z,85.83
2022-11-29T09:28:43.902Z,86.15
2022-11-29T09:31:13.253Z,85.98
2022-11-29T09:33:40.208Z,85.83
2022-11-29T09:36:09.439Z,85.86
2022-11-29T09:38:36.514Z,85.83
2022-11-29T09:41:06.748Z,86.03
2022-11-29T09:44:00.636Z,86.17
2022-11-29T09:46:58.844Z,86.12
2022-11-29T09:50:03.649Z,86.02
2022-11-29T09:52:59.499Z,86.01
2022-11-29T09:55:57.004Z,85.89
2022-11-29T09:58:32.781Z,85.56
2022-11-29T10:01:06.130Z,85.85
2022-11-29T10:03:40.862Z,85.57
2022-11-29T10:06:17.949Z,85.57
2022-11-29T10:08:51.459Z,85.57
2022-11-29T10:11:25.196Z,85.21
2022-11-29T10:13:57.839Z,85.52
2022-11-29T10:16:42.020Z,85.41
2022-11-29T10:19:27.102Z,85.36
2022-11-29T10:22:07.251Z,85.34
2022-11-29T10:24:34.231Z,85.71
2022-11-29T10:27:00.809Z,85.53
2022-11-29T10:29:27.304Z,85.62
2022-11-29T10:31:56.779Z,85.34
2022-11-29T10:34:26.085Z,85.41
2022-11-29T10:36:59.382Z,85.24
2022-11-29T10:39:37.066Z,85.45
2022-11-29T10:42:06.468Z,84.93
2022-11-29T10:44:33.677Z,85.31
2022-11-29T10:47:05.445Z,85.28
2022-11-29T10:49:36.096Z,85.21
2022-11-29T10:52:02.569Z,85.01
2022-11-29T10:54:38.615Z,84.77
2022-11-29T10:57:14.309Z,84.73
2022-11-29T10:59:40.796Z,84.78
2022-11-29T11:02:21.042Z,85.21
2022-11-29T11:04:48.213Z,84.67
2022-11-29T11:07:25.395Z,84.91
2022-11-29T11:09:55.939Z,84.32
2022-11-29T11:12:26.831Z,84.08
2022-11-29T11:15:15.518Z,84.47
2022-11-29T11:18:04.749Z,84.50
2022-11-29T11:20:37.164Z,84.50
2022-11-29T11:23:26.664Z,84.14
2022-11-29T11:26:00.334Z,84.21
2022-11-29T11:28:30.945Z,84.16
2022-11-29T11:31:08.490Z,84.34
2022-11-29T11:33:38.628Z,84.25
2022-11-29T11:36:21.119Z,83.98
2022-11-29T11:38:59.058Z,83.89
2022-11-29T11:41:57.226Z,83.88
2022-11-29T11:44:47.284Z,83.97
2022-11-29T11:47:18.921Z,84.05
2022-11-29T11:50:04.053Z,84.25
2022-11-29T11:52:39.824Z,83.71
2022-11-29T11:55:29.130Z,83.68
2022-11-29T11:58:09.814Z,83.77
2022-11-29T12:01:05.035Z,83.50
2022-11-29T12:03:53.056Z,83.32
2022-11-29T12:06:19.425Z,83.51
2022-11-29T12:08:48.894Z,83.54
2022-11-29T12:11:18.830Z,83.23
2022-11-29T12:14:17.995Z,83.34
2022-11-29T12:16:49.175Z,83.15
2022-11-29T12:19:43.765Z,83.52
2022-11-29T12:22:16.308Z,83.34
2022-11-29T12:24:52.961Z,83.26
2022-11-29T12:27:19.516Z,83.72
2022-11-29T12:29:46.037Z,83.27
2022-11-29T12:32:24.804Z,83.30
2022-11-29T12:35:19.337Z,83.10
2022-11-29T12:38:06.133Z,83.41
2022-11-29T12:40:35.282Z,83.35
2022-11-29T12:43:02.079Z,83.25
2022-11-29T12:46:04.734Z,83.20
2022-11-29T12:48:43.646Z,83.32
2022-11-29T12:51:21.607Z,83.39
2022-11-29T12:54:25.725Z,83.42
2022-11-29T12:57:30.721Z,83.15
2022-11-29T13:00:25.013Z,83.01
2022-11-29T13:03:25.679Z,83.16
2022-11-29T13:06:08.489Z,83.26
2022-11-29T13:09:02.688Z,82.76
2022-11-29T13:11:31.117Z,83.02
2022-11-29T13:14:34.535Z,83.25
2022-11-29T13:16:58.961Z,82.86
2022-11-29T13:19:50.270Z,82.79
2022-11-29T13:22:35.463Z,82.76
2022-11-29T13:25:13.164Z,83.11
2022-11-29T13:27:56.801Z,83.05
2022-11-29T13:30:23.272Z,83.31
2022-11-29T13:33:08.687Z,83.00
2022-11-29T13:35:44.901Z,83.07
2022-11-29T13:38:21.378Z,83.19
2022-11-29T13:40:58.146Z,83.04
2022-11-29T13:43:44.560Z,83.03
2022-11-29T13:46:23.240Z,83.00
2022-11-29T13:48:52.879Z,82.97
2022-11-29T13:51:28.698Z,82.95
2022-11-29T13:53:56.956Z,82.43
2022-11-29T13:56:36.141Z,82.42
2022-11-29T13:59:08.753Z,81.88
2022-11-29T14:01:47.711Z,82.24
2022-11-29T14:04:31.943Z,82.23
2022-11-29T14:07:24.857Z,82.28
2022-11-29T14:09:59.384Z,82.01
2022-11-29T14:12:37.153Z,82.20
2022-11-29T14:15:14.615Z,82.09
2022-11-29T14:17:50.814Z,82.24
2022-11-29T14:20:23.395Z,81.72
2022-11-29T14:23:05.219Z,81.80
2022-11-29T14:25:57.514Z,82.32
2022-11-29T14:28:23.932Z,82.14
2022-11-29T14:30:55.465Z,82.33
2022-11-29T14:33:46.381Z,81.92
2022-11-29T14:36:18.790Z,82.04
2022-11-29T14:39:10.261Z,82.55
2022-11-29T14:41:58.508Z,81.80
2022-11-29T14:44:28.305Z,82.19
2022-11-29T14:47:15.540Z,81.98
2022-11-29T14:49:44.496Z,82.20
2022-11-29T14:52:13.896Z,82.24
2022-11-29T14:55:02.948Z,81.92
2022-11-29T14:57:51.168Z,82.07
2022-11-29T15:00:21.528Z,81.97
2022-11-29T15:03:17.514Z,82.38
2022-11-29T15:05:48.741Z,82.00
2022-11-29T15:08:54.174Z,81.89
2022-11-29T15:11:34.121Z,81.50
2022-11-29T15:14:20.441Z,82.10
2022-11-29T15:16:55.534Z,82.06
2022-11-29T15:19:40.916Z,81.79
2022-11-29T15:22:33.584Z,81.85
2022-11-29T15:25:05.096Z,82.13
2022-11-29T15:27:34.154Z,81.90
2022-11-29T15:30:39.434Z,81.78
2022-11-29T15:33:21.351Z,82.20
2022-11-29T15:35:53.589Z,81.56
2022-11-29T15:38:21.786Z,82.02
2022-11-29T15:40:52.883Z,82.26
2022-11-29T15:43:53.638Z,81.67
2022-11-29T15:46:24.840Z,82.14
2022-11-29T15:48:51.333Z,82.00
2022-11-29T15:51:33.625Z,82.14
2022-11-29T15:54:13.799Z,82.05
2022-11-29T15:56:56.435Z,82.05
2022-11-29T15:59:40.779Z,82.21
2022-11-29T16:02:30.025Z,81.98
2022-11-29T16:05:03.021Z,82.02
2022-11-29T16:07:32.615Z,82.03
2022-11-29T16:10:13.078Z,81.85
2022-11-29T16:12:52.689Z,82.03
2022-11-29T16:15:28.105Z,81.83
2022-11-29T16:17:54.752Z,82.13
2022-11-29T16:20:24.308Z,81.59
2022-11-29T16:23:11.313Z,81.66
2022-11-29T16:25:55.872Z,81.78
2022-11-29T16:28:32.836Z,82.03
2022-11-29T16:31:00.067Z,81.81
2022-11-29T16:33:27.226Z,81.64
2022-11-29T16:36:16.616Z,81.54
2022-11-29T16:38:48.682Z,81.77
2022-11-29T16:41:35.497Z,82.08
2022-11-29T16:44:03.628Z,82.03
2022-11-29T16:46:35.962Z,82.31
2022-11-29T16:49:34.522Z,81.83
2022-11-29T16:52:02.446Z,81.99
2022-11-29T16:54:35.370Z,81.97
2022-11-29T16:57:05.394Z,81.86
2022-11-29T16:59:32.483Z,81.66
2022-11-29T17:01:59.470Z,81.98
2022-11-29T17:04:26.358Z,81.95
2022-11-29T17:06:54.820Z,81.65
2022-11-29T17:09:24.419Z,82.12
2022-11-29T17:11:51.720Z,82.07
2022-11-29T17:14:18.237Z,81.83
2022-11-29T17:16:44.833Z,81.86
2022-11-29T17:19:12.640Z,81.87
2022-11-29T17:21:39.296Z,81.82
2022-11-29T17:24:06.360Z,81.86
2022-11-29T17:26:32.825Z,81.57
2022-11-29T17:28:59.284Z,82.00
2022-11-29T17:31:25.881Z,82.21
2022-11-29T17:33:52.448Z,82.08
2022-11-29T17:36:21.173Z,81.45
2022-11-29T17:38:48.061Z,82.10
2022-11-29T17:41:22.260Z,81.62
2022-11-29T17:43:50.874Z,82.03
2022-11-29T17:46:24.979Z,81.89
2022-11-29T17:48:52.432Z,81.93
2022-11-29T17:54:08.503Z,81.63
2022-11-29T17:56:35.123Z,82.03
2022-11-29T17:59:03.597Z,81.60
2022-11-29T18:01:33.541Z,81.73
2022-11-29T18:04:01.790Z,81.81
2022-11-29T18:06:30.918Z,81.89
2022-11-29T18:08:59.620Z,81.70
2022-11-29T18:11:32.432Z,81.93
2022-11-29T18:14:03.506Z,81.98
2022-11-29T18:16:32.945Z,81.83
2022-11-29T18:19:01.706Z,82.01
2022-11-29T18:21:28.730Z,81.83
2022-11-29T18:23:55.692Z,82.07
2022-11-29T18:26:24.276Z,82.01
2022-11-29T18:28:51.615Z,81.41
2022-11-29T18:31:28.297Z,81.66
2022-11-29T18:33:57.767Z,81.61
2022-11-29T18:36:27.052Z,81.81
2022-11-29T18:38:59.278Z,81.75
2022-11-29T18:41:27.211Z,81.57
2022-11-29T18:43:59.239Z,81.50
2022-11-29T18:46:28.221Z,81.43
2022-11-29T18:48:54.701Z,81.46
2022-11-29T18:51:21.209Z,81.18
2022-11-29T18:53:47.718Z,81.33
2022-11-29T18:56:19.960Z,81.60
2022-11-29T18:58:47.830Z,81.67
2022-11-29T19:01:17.020Z,81.80
2022-11-29T19:03:46.034Z,81.43
2022-11-29T19:06:14.752Z,81.46
2022-11-29T19:08:42.879Z,81.50
2022-11-29T19:11:17.790Z,81.64
2022-11-29T19:13:44.826Z,81.27
2022-11-29T19:16:15.385Z,81.22
2022-11-29T19:18:42.208Z,81.39
2022-11-29T19:21:14.361Z,81.72
2022-11-29T19:23:41.861Z,81.40
2022-11-29T19:26:12.833Z,80.96
2022-11-29T19:28:42.105Z,81.06
2022-11-29T19:31:09.712Z,81.36
2022-11-29T19:33:37.875Z,81.17
2022-11-29T19:36:06.489Z,81.38
2022-11-29T19:38:35.740Z,81.40
2022-11-29T19:41:20.600Z,81.19
2022-11-29T19:43:48.405Z,81.10
2022-11-29T19:46:20.938Z,81.47
2022-11-29T19:48:47.888Z,81.46
2022-11-29T19:51:17.976Z,81.23
2022-11-29T19:53:45.884Z,80.90
2022-11-29T19:56:15.420Z,81.45
2022-11-29T19:58:42.747Z,80.89
2022-11-29T20:01:16.351Z,81.09
2022-11-29T20:03:43.520Z,80.86
2022-11-29T20:06:10.884Z,80.85
2022-11-29T20:08:37.922Z,81.10
2022-11-29T20:11:13.148Z,80.77
2022-11-29T20:13:41.098Z,80.85
2022-11-29T20:16:10.898Z,81.10
2022-11-29T20:18:43.543Z,80.68
2022-11-29T20:21:17.759Z,80.69
2022-11-29T20:23:44.251Z,80.37
2022-11-29T20:26:14.952Z,80.50
2022-11-29T20:28:42.219Z,81.01
2022-11-29T20:31:12.939Z,80.72
2022-11-29T20:33:42.468Z,80.85
2022-11-29T20:36:08.834Z,81.19
2022-11-29T20:38:47.464Z,80.31
2022-11-29T20:42:18.712Z,80.79
2022-11-29T20:44:51.057Z,80.64
2022-11-29T20:47:23.353Z,80.50
2022-11-29T20:49:50.461Z,80.50
2022-11-29T20:52:45.070Z,80.64
2022-11-29T20:55:13.826Z,80.58
2022-11-29T20:57:40.255Z,80.28
2022-11-29T21:00:09.138Z,80.23
2022-11-29T21:02:35.650Z,80.50
2022-11-29T21:05:02.216Z,80.29
2022-11-29T21:07:29.255Z,80.43
2022-11-29T21:10:00.936Z,80.39
2022-11-29T21:12:29.108Z,80.43
2022-11-29T21:14:55.784Z,80.38
2022-11-29T21:17:22.559Z,80.17
2022-11-29T21:19:49.428Z,80.10
2022-11-29T21:22:25.455Z,80.64
2022-11-29T21:25:41.132Z,80.31
2022-11-29T21:28:15.537Z,80.45
2022-11-29T21:30:43.056Z,80.31
2022-11-29T21:33:11.175Z,80.46
2022-11-29T21:35:42.006Z,80.49
2022-11-29T21:38:14.694Z,80.75
2022-11-29T21:40:41.200Z,80.25
2022-11-29T21:43:10.460Z,80.02
2022-11-29T21:45:37.028Z,80.72
2022-11-29T21:48:03.594Z,80.30
2022-11-29T21:50:30.028Z,80.56
2022-11-29T21:52:56.481Z,80.34
2022-11-29T21:55:22.934Z,80.18
2022-11-29T21:57:49.366Z,80.59
2022-11-29T22:00:16.253Z,80.50
2022-11-29T22:02:42.827Z,80.68
2022-11-29T22:05:09.659Z,80.38
2022-11-29T22:07:36.284Z,80.37
2022-11-29T22:10:09.979Z,80.23
2022-11-29T22:12:42.855Z,80.46
2022-11-29T22:15:13.985Z,80.30
2022-11-29T22:17:40.428Z,80.44
2022-11-29T22:20:07.545Z,80.74
2022-11-29T22:22:33.985Z,80.48
2022-11-29T22:25:00.436Z,80.23
2022-11-29T22:27:26.887Z,80.49
2022-11-29T22:29:53.362Z,80.88
2022-11-29T22:32:19.813Z,80.72
2022-11-29T22:34:46.504Z,80.63
2022-11-29T22:37:13.224Z,80.24
2022-11-29T22:39:39.656Z,80.56
2022-11-29T22:42:06.893Z,80.40
2022-11-29T22:44:33.360Z,80.77
2022-11-29T22:46:59.830Z,80.42
2022-11-29T22:49:26.358Z,80.18
2022-11-29T22:51:53.342Z,80.77
2022-11-29T22:54:20.287Z,80.42
2022-11-29T22:56:47.391Z,80.02
2022-11-29T22:59:14.122Z,80.78
2022-11-29T23:01:41.666Z,81.00
2022-11-29T23:04:09.430Z,80.92
2022-11-29T23:06:41.680Z,80.58
2022-11-29T23:09:16.337Z,80.44
2022-11-29T23:11:44.753Z,80.76
2022-11-29T23:14:11.696Z,80.39
2022-11-29T23:16:38.289Z,80.63
2022-11-29T23:19:04.770Z,80.40
2022-11-29T23:21:35.039Z,80.50
2022-11-29T23:24:02.271Z,80.74
2022-11-29T23:26:39.483Z,80.58
2022-11-29T23:29:08.388Z,80.67
2022-11-29T23:31:34.938Z,80.62
2022-11-29T23:34:02.613Z,80.50
2022-11-29T23:36:29.046Z,80.62
2022-11-29T23:38:55.497Z,81.14
2022-11-29T23:41:22.109Z,80.63
2022-11-29T23:43:48.560Z,80.66
2022-11-29T23:46:23.201Z,80.93
2022-11-29T23:48:50.413Z,80.49
2022-11-29T23:51:18.041Z,80.02
2022-11-29T23:53:44.840Z,80.43
2022-11-29T23:56:16.172Z,80.69
2022-11-29T23:58:43.695Z,80.46
